Terminal Aerodrome Forecast
Issued by NWS Medford, OR

Home | Current Version | Previous Version | Text Only | Print | Product List | Glossary On
Versions: 1 2 3 4 5 6 7 8 9 10 11 12
710
FTUS46 KMFR 230539
TAFMFR
TAF
KMFR 230539Z 2306/2406 VRB03KT P6SM FEW250
     FM232300 31010KT P6SM FEW250
     FM240400 01004KT P6SM SKC=

USA.gov is the U.S. government's official web portal to all federal, state and local government web resources and services.